createdAt,value
2023-12-16T00:01:58.716Z,94.09
2023-12-16T00:04:32.415Z,93.49
2023-12-16T00:06:58.850Z,92.43
2023-12-16T00:09:25.240Z,89.08
2023-12-16T00:11:51.584Z,89.51
2023-12-16T00:14:18.544Z,91.55
2023-12-16T00:16:45.853Z,89.57
2023-12-16T00:19:12.653Z,89.16
2023-12-16T00:21:39.157Z,91.07
2023-12-16T00:24:07.848Z,92.12
2023-12-16T00:26:34.423Z,92.03
2023-12-16T00:29:00.778Z,91.02
2023-12-16T00:31:27.218Z,91.07
2023-12-16T00:33:53.787Z,89.96
2023-12-16T00:36:20.205Z,88.62
2023-12-16T00:38:46.554Z,89.17
2023-12-16T00:41:12.990Z,90.98
2023-12-16T00:43:39.344Z,90.08
2023-12-16T00:46:05.900Z,91.20
2023-12-16T00:48:32.518Z,91.10
2023-12-16T00:50:58.895Z,91.91
2023-12-16T00:53:25.405Z,93.79
2023-12-16T00:55:52.094Z,92.97
2023-12-16T00:58:18.532Z,92.44
2023-12-16T01:00:45.382Z,92.13
2023-12-16T01:03:11.872Z,92.76
2023-12-16T01:05:41.278Z,91.22
2023-12-16T01:08:07.657Z,91.73
2023-12-16T01:10:34.060Z,92.19
2023-12-16T01:13:00.524Z,92.03
2023-12-16T01:15:26.947Z,89.29
2023-12-16T01:17:53.390Z,89.63
2023-12-16T01:20:19.824Z,89.92
2023-12-16T01:22:46.178Z,89.54
2023-12-16T01:25:12.713Z,89.95
2023-12-16T01:27:39.524Z,89.76
2023-12-16T01:30:07.479Z,88.82
2023-12-16T01:32:33.983Z,89.08
2023-12-16T01:35:00.460Z,89.45
2023-12-16T01:37:27.465Z,88.84
2023-12-16T01:39:53.906Z,87.70
2023-12-16T01:42:20.282Z,88.24
2023-12-16T01:44:46.649Z,86.87
2023-12-16T01:47:13.357Z,88.27
2023-12-16T01:49:40.256Z,89.27
2023-12-16T01:52:08.553Z,89.25
2023-12-16T01:54:35.081Z,90.15
2023-12-16T01:57:04.335Z,89.62
2023-12-16T01:59:30.781Z,90.39
2023-12-16T02:01:57.557Z,89.85
2023-12-16T02:04:24.239Z,90.48
2023-12-16T02:06:51.482Z,90.11
2023-12-16T02:09:20.562Z,89.94
2023-12-16T02:11:47.020Z,89.55
2023-12-16T02:14:13.376Z,86.88
2023-12-16T02:16:39.867Z,86.06
2023-12-16T02:19:11.885Z,86.05
2023-12-16T02:21:38.272Z,78.85
2023-12-16T02:24:05.037Z,76.52
2023-12-16T02:26:31.394Z,77.19
2023-12-16T02:28:57.742Z,74.09
2023-12-16T02:31:24.245Z,71.51
2023-12-16T02:33:50.845Z,70.20
2023-12-16T02:36:17.408Z,69.39
2023-12-16T02:38:43.758Z,67.85
2023-12-16T02:41:10.148Z,70.01
2023-12-16T02:43:36.581Z,70.14
2023-12-16T02:46:03.053Z,68.33
2023-12-16T02:48:29.570Z,69.49
2023-12-16T02:50:55.991Z,69.63
2023-12-16T02:53:22.556Z,67.61
2023-12-16T02:55:48.995Z,68.90
2023-12-16T02:58:15.798Z,66.74
2023-12-16T03:00:42.297Z,66.89
2023-12-16T03:03:08.761Z,69.74
2023-12-16T03:05:35.179Z,70.49
2023-12-16T03:08:01.625Z,69.79
2023-12-16T03:10:28.067Z,68.45
2023-12-16T03:12:54.555Z,67.73
2023-12-16T03:15:20.936Z,68.78
2023-12-16T03:17:47.364Z,68.68
2023-12-16T03:20:13.852Z,68.01
2023-12-16T03:22:40.592Z,65.66
2023-12-16T03:25:07.624Z,67.63
2023-12-16T03:27:34.049Z,65.00
2023-12-16T03:30:00.451Z,66.15
2023-12-16T03:32:26.841Z,67.53
2023-12-16T03:34:53.230Z,66.53
2023-12-16T03:37:19.927Z,67.07
2023-12-16T03:39:46.309Z,67.37
2023-12-16T03:42:12.680Z,66.94
2023-12-16T03:44:39.108Z,67.28
2023-12-16T03:47:05.558Z,68.25
2023-12-16T03:49:32.173Z,67.37
2023-12-16T03:51:58.636Z,67.57
2023-12-16T03:54:25.202Z,68.63
2023-12-16T03:56:51.729Z,68.58
2023-12-16T03:59:18.138Z,69.04
2023-12-16T04:01:45.920Z,69.94
2023-12-16T04:04:12.708Z,70.39
2023-12-16T04:06:39.107Z,71.40
2023-12-16T04:09:05.545Z,71.86
2023-12-16T04:11:31.954Z,71.09
2023-12-16T04:13:58.335Z,71.88
2023-12-16T04:16:24.732Z,71.68
2023-12-16T04:18:51.191Z,71.39
2023-12-16T04:21:17.885Z,71.65
2023-12-16T04:23:44.277Z,72.36
2023-12-16T04:26:10.637Z,71.57
2023-12-16T04:28:37.624Z,72.69
2023-12-16T04:31:04.380Z,72.62
2023-12-16T04:33:30.913Z,71.26
2023-12-16T04:35:59.546Z,72.75
2023-12-16T04:38:26.045Z,72.78
2023-12-16T04:40:52.377Z,73.24
2023-12-16T04:43:18.790Z,73.57
2023-12-16T04:45:46.304Z,73.07
2023-12-16T04:48:12.745Z,71.94
2023-12-16T04:50:39.158Z,71.32
2023-12-16T04:53:05.620Z,72.29
2023-12-16T04:55:32.197Z,72.40
2023-12-16T04:57:58.657Z,72.47
2023-12-16T05:00:25.050Z,72.23
2023-12-16T05:02:51.429Z,71.56
2023-12-16T05:05:17.790Z,72.01
2023-12-16T05:07:44.240Z,71.85
2023-12-16T05:10:11.917Z,71.81
2023-12-16T05:12:40.758Z,73.03
2023-12-16T05:15:07.860Z,72.86
2023-12-16T05:17:34.510Z,72.51
2023-12-16T05:20:01.167Z,72.28
2023-12-16T05:22:27.754Z,73.25
2023-12-16T05:24:54.248Z,73.20
2023-12-16T05:27:20.622Z,72.19
2023-12-16T05:29:46.996Z,71.88
2023-12-16T05:32:13.342Z,72.68
2023-12-16T05:34:39.767Z,72.03
2023-12-16T05:37:06.276Z,71.55
2023-12-16T05:39:32.709Z,70.22
2023-12-16T05:41:59.105Z,70.12
2023-12-16T05:44:25.454Z,70.84
2023-12-16T05:46:52.212Z,70.71
2023-12-16T05:49:19.124Z,71.38
2023-12-16T05:51:45.586Z,71.17
2023-12-16T05:54:12.064Z,71.22
2023-12-16T05:56:38.462Z,69.64
2023-12-16T05:59:04.837Z,69.86
2023-12-16T06:01:31.400Z,68.48
2023-12-16T06:03:57.911Z,69.30
2023-12-16T06:06:24.349Z,69.59
2023-12-16T06:08:51.308Z,68.36
2023-12-16T06:11:17.752Z,68.15
2023-12-16T06:13:44.085Z,68.95
2023-12-16T06:16:20.042Z,68.35
2023-12-16T06:18:48.268Z,68.09
2023-12-16T06:21:14.807Z,68.58
2023-12-16T06:23:41.411Z,69.16
2023-12-16T06:26:07.970Z,68.66
2023-12-16T06:28:34.330Z,69.60
2023-12-16T06:31:00.935Z,68.69
2023-12-16T06:33:27.410Z,69.35
2023-12-16T06:35:53.932Z,68.76
2023-12-16T06:38:20.301Z,68.88
2023-12-16T06:40:46.660Z,68.95
2023-12-16T06:43:13.359Z,69.37
2023-12-16T06:45:40.034Z,69.94
2023-12-16T06:48:06.620Z,69.16
2023-12-16T06:50:33.034Z,69.34
2023-12-16T06:52:59.405Z,68.58
2023-12-16T06:55:25.845Z,69.82
2023-12-16T06:57:52.782Z,70.52
2023-12-16T07:00:19.532Z,70.96
2023-12-16T07:02:45.909Z,71.40
2023-12-16T07:05:12.312Z,69.24
2023-12-16T07:07:38.937Z,69.05
2023-12-16T07:10:07.182Z,69.62
2023-12-16T07:12:34.046Z,70.29
2023-12-16T07:15:00.417Z,69.41
2023-12-16T07:17:27.454Z,68.43
2023-12-16T07:19:54.219Z,68.87
2023-12-16T07:22:20.758Z,69.51
2023-12-16T07:24:47.191Z,70.15
2023-12-16T07:27:13.747Z,70.83
2023-12-16T07:29:40.203Z,70.77
2023-12-16T07:32:06.931Z,70.19
2023-12-16T07:34:33.429Z,71.10
2023-12-16T07:36:59.955Z,71.02
2023-12-16T07:39:26.348Z,70.84
2023-12-16T07:41:52.769Z,70.47
2023-12-16T07:44:19.135Z,72.38
2023-12-16T07:46:45.528Z,71.96
2023-12-16T07:49:11.942Z,71.80
2023-12-16T07:51:38.452Z,71.74
2023-12-16T07:54:04.858Z,71.14
2023-12-16T07:56:31.317Z,70.42
2023-12-16T07:59:01.502Z,72.11
2023-12-16T08:01:27.894Z,72.17
2023-12-16T08:03:54.441Z,71.39
2023-12-16T08:06:21.537Z,70.91
2023-12-16T08:08:48.062Z,71.04
2023-12-16T08:11:14.436Z,70.42
2023-12-16T08:13:40.886Z,70.79
2023-12-16T08:16:12.298Z,71.04
2023-12-16T08:18:39.039Z,71.26
2023-12-16T08:21:05.627Z,71.42
2023-12-16T08:23:32.035Z,70.71
2023-12-16T08:25:58.398Z,70.73
2023-12-16T08:28:25.065Z,71.31
2023-12-16T08:30:53.427Z,71.91
2023-12-16T08:33:19.892Z,71.93
2023-12-16T08:35:46.359Z,71.28
2023-12-16T08:38:12.836Z,71.22
2023-12-16T08:40:39.953Z,72.75
2023-12-16T08:43:06.402Z,72.98
2023-12-16T08:45:32.922Z,72.96
2023-12-16T08:47:59.304Z,71.25
2023-12-16T08:50:26.595Z,70.96
2023-12-16T08:52:52.980Z,70.93
2023-12-16T08:55:19.422Z,70.84
2023-12-16T08:57:45.914Z,71.37
2023-12-16T09:00:12.519Z,70.78
2023-12-16T09:02:40.027Z,71.02
2023-12-16T09:05:06.509Z,70.36
2023-12-16T09:07:33.044Z,70.70
2023-12-16T09:09:59.508Z,71.56
2023-12-16T09:12:25.973Z,70.36
2023-12-16T09:14:52.355Z,70.96
2023-12-16T09:17:18.751Z,70.31
2023-12-16T09:19:45.185Z,71.21
2023-12-16T09:22:12.816Z,70.52
2023-12-16T09:24:40.293Z,69.70
2023-12-16T09:27:08.033Z,71.21
2023-12-16T09:29:34.450Z,71.38
2023-12-16T09:32:00.856Z,70.58
2023-12-16T09:34:27.731Z,69.62
2023-12-16T09:36:54.174Z,70.15
2023-12-16T09:39:20.562Z,70.04
2023-12-16T09:41:47.474Z,70.04
2023-12-16T09:44:20.228Z,68.54
2023-12-16T09:46:47.224Z,67.95
2023-12-16T09:49:14.222Z,68.00
2023-12-16T09:51:42.890Z,66.83
2023-12-16T09:54:09.559Z,67.88
2023-12-16T09:56:37.116Z,67.14
2023-12-16T09:59:04.913Z,67.25
2023-12-16T10:01:31.666Z,66.47
2023-12-16T10:03:59.544Z,67.04
2023-12-16T10:06:25.922Z,66.99
2023-12-16T10:08:52.503Z,67.59
2023-12-16T10:11:18.967Z,68.24
2023-12-16T10:13:57.259Z,68.76
2023-12-16T10:16:25.018Z,68.31
2023-12-16T10:18:56.177Z,69.52
2023-12-16T10:21:28.646Z,69.92
2023-12-16T10:24:02.824Z,68.47
2023-12-16T10:26:37.093Z,67.39
2023-12-16T10:29:05.357Z,65.08
2023-12-16T10:31:32.073Z,63.69
2023-12-16T10:34:01.515Z,62.15
2023-12-16T10:36:29.676Z,61.52
2023-12-16T10:38:56.419Z,57.83
2023-12-16T10:41:23.332Z,58.79
2023-12-16T10:43:49.779Z,54.35
2023-12-16T10:46:21.275Z,54.86
2023-12-16T10:48:51.741Z,55.82
2023-12-16T10:51:20.058Z,55.46
2023-12-16T10:53:57.356Z,53.75
2023-12-16T10:56:30.115Z,56.02
2023-12-16T10:59:05.979Z,57.40
2023-12-16T11:01:36.163Z,55.52
2023-12-16T11:04:11.645Z,57.16
2023-12-16T11:06:49.909Z,57.27
2023-12-16T11:09:17.088Z,57.30
2023-12-16T11:11:44.556Z,59.66
2023-12-16T11:14:11.892Z,58.58
2023-12-16T11:17:00.901Z,58.57
2023-12-16T11:19:33.019Z,58.32
2023-12-16T11:21:59.839Z,58.92
2023-12-16T11:24:26.473Z,58.77
2023-12-16T11:26:54.574Z,58.40
2023-12-16T11:29:24.695Z,57.51
2023-12-16T11:31:54.944Z,56.58
2023-12-16T11:34:50.957Z,56.79
2023-12-16T11:37:36.009Z,56.56
2023-12-16T11:40:08.612Z,56.79
2023-12-16T11:42:54.426Z,57.26
2023-12-16T11:45:40.992Z,55.90
2023-12-16T11:48:11.645Z,55.85
2023-12-16T11:50:40.731Z,55.99
2023-12-16T11:53:10.400Z,57.35
2023-12-16T11:55:37.286Z,57.00
2023-12-16T11:58:04.516Z,55.54
2023-12-16T12:00:31.404Z,55.13
2023-12-16T12:03:03.585Z,56.03
2023-12-16T12:05:30.982Z,54.63
2023-12-16T12:07:57.732Z,56.84
2023-12-16T12:10:24.164Z,56.42
2023-12-16T12:12:53.542Z,55.34
2023-12-16T12:15:21.051Z,55.68
2023-12-16T12:17:47.718Z,56.18
2023-12-16T12:20:18.063Z,56.58
2023-12-16T12:22:44.734Z,57.00
2023-12-16T12:27:44.486Z,58.41
2023-12-16T12:30:19.802Z,58.38
2023-12-16T12:32:46.402Z,60.18
2023-12-16T12:35:13.041Z,60.71
2023-12-16T12:37:47.760Z,61.24
2023-12-16T12:40:14.261Z,60.33
2023-12-16T12:42:52.560Z,61.43
2023-12-16T12:45:35.952Z,61.08
2023-12-16T12:48:13.239Z,61.88
2023-12-16T12:50:41.616Z,63.01
2023-12-16T12:53:24.657Z,62.37
2023-12-16T12:55:52.969Z,62.67
2023-12-16T12:58:27.157Z,63.66
2023-12-16T13:00:58.211Z,62.85
2023-12-16T13:03:24.817Z,61.73
2023-12-16T13:05:51.743Z,61.57
2023-12-16T13:08:18.290Z,62.38
2023-12-16T13:10:46.503Z,62.34
2023-12-16T13:13:13.577Z,62.95
2023-12-16T13:15:53.806Z,62.39
2023-12-16T13:18:24.267Z,61.30
2023-12-16T13:20:51.113Z,63.16
2023-12-16T13:23:17.646Z,62.30
2023-12-16T13:25:44.395Z,62.49
2023-12-16T13:28:10.823Z,63.49
2023-12-16T13:30:37.321Z,63.58
2023-12-16T13:33:06.443Z,63.90
2023-12-16T13:35:33.836Z,64.91
2023-12-16T13:38:00.265Z,64.94
2023-12-16T13:40:26.766Z,64.32
2023-12-16T13:42:53.131Z,63.96
2023-12-16T13:45:19.735Z,64.62
2023-12-16T13:47:46.289Z,64.88
2023-12-16T13:50:13.152Z,64.90
2023-12-16T13:52:39.655Z,65.27
2023-12-16T13:55:06.488Z,65.93
2023-12-16T13:57:33.062Z,66.75
2023-12-16T13:59:59.911Z,66.70
2023-12-16T14:02:26.507Z,65.68
2023-12-16T14:04:53.214Z,65.15
2023-12-16T14:07:19.702Z,66.35
2023-12-16T14:09:48.496Z,65.74
2023-12-16T14:12:14.893Z,67.11
2023-12-16T14:14:41.455Z,66.55
2023-12-16T14:17:07.899Z,66.83
2023-12-16T14:19:35.845Z,66.67
2023-12-16T14:22:03.548Z,67.72
2023-12-16T14:24:29.926Z,67.27
2023-12-16T14:26:56.718Z,67.04
2023-12-16T14:29:23.192Z,67.50
2023-12-16T14:31:50.297Z,68.29
2023-12-16T14:34:19.490Z,67.20
2023-12-16T14:36:46.999Z,67.99
2023-12-16T14:39:13.760Z,66.73
2023-12-16T14:41:40.603Z,66.50
2023-12-16T14:44:07.258Z,66.14
2023-12-16T14:46:33.715Z,66.83
2023-12-16T14:49:00.353Z,67.17
2023-12-16T14:51:26.988Z,67.93
2023-12-16T14:53:53.820Z,69.46
2023-12-16T14:56:21.098Z,68.39
2023-12-16T14:58:50.719Z,67.75
2023-12-16T15:01:21.835Z,68.70
2023-12-16T15:03:48.853Z,69.87
2023-12-16T15:06:22.622Z,70.05
2023-12-16T15:08:55.857Z,71.76
2023-12-16T15:11:22.845Z,71.88
2023-12-16T15:13:49.659Z,70.72
2023-12-16T15:16:18.387Z,70.45
2023-12-16T15:18:46.659Z,71.32
2023-12-16T15:21:13.205Z,71.31
2023-12-16T15:23:39.682Z,72.00
2023-12-16T15:26:06.790Z,72.11
2023-12-16T15:28:33.195Z,73.84
2023-12-16T15:31:00.408Z,73.45
2023-12-16T15:33:28.104Z,74.05
2023-12-16T15:35:54.857Z,73.79
2023-12-16T15:38:21.316Z,73.56
2023-12-16T15:40:47.877Z,74.06
2023-12-16T15:43:14.687Z,75.98
2023-12-16T15:45:41.109Z,76.02
2023-12-16T15:48:08.224Z,75.20
2023-12-16T15:50:34.964Z,73.85
2023-12-16T15:53:01.494Z,75.99
2023-12-16T15:55:27.930Z,75.81
2023-12-16T15:57:54.367Z,75.87
2023-12-16T16:00:20.817Z,73.73
2023-12-16T16:02:49.999Z,74.14
2023-12-16T16:05:17.329Z,73.97
2023-12-16T16:07:43.725Z,73.73
2023-12-16T16:10:10.523Z,75.15
2023-12-16T16:12:36.899Z,76.65
2023-12-16T16:15:04.273Z,76.76
2023-12-16T16:17:30.731Z,77.53
2023-12-16T16:19:58.192Z,77.53
2023-12-16T16:22:24.652Z,78.77
2023-12-16T16:24:53.124Z,78.57
2023-12-16T16:27:19.506Z,77.40
2023-12-16T16:29:45.962Z,78.37
2023-12-16T16:32:12.444Z,78.45
2023-12-16T16:34:38.825Z,79.48
2023-12-16T16:37:05.282Z,79.96
2023-12-16T16:39:31.684Z,79.94
2023-12-16T16:41:58.144Z,80.83
2023-12-16T16:44:24.518Z,82.09
2023-12-16T16:46:50.906Z,81.70
2023-12-16T16:49:18.105Z,78.72
2023-12-16T16:51:44.965Z,81.19
2023-12-16T16:54:16.009Z,79.55
2023-12-16T16:56:42.586Z,79.08
2023-12-16T16:59:09.384Z,79.36
2023-12-16T17:01:35.755Z,79.99
2023-12-16T17:04:02.189Z,80.47
2023-12-16T17:06:28.628Z,81.15
2023-12-16T17:08:55.186Z,82.04
2023-12-16T17:11:23.672Z,81.39
2023-12-16T17:13:50.060Z,82.30
2023-12-16T17:16:18.495Z,80.06
2023-12-16T17:18:46.533Z,78.62
2023-12-16T17:21:13.129Z,78.81
2023-12-16T17:23:39.546Z,80.85
2023-12-16T17:26:06.316Z,79.48
2023-12-16T17:28:33.061Z,80.48
2023-12-16T17:31:00.054Z,81.14
2023-12-16T17:33:26.568Z,80.97
2023-12-16T17:35:54.442Z,82.94
2023-12-16T17:38:20.842Z,84.75
2023-12-16T17:40:47.204Z,85.30
2023-12-16T17:43:13.553Z,87.19
2023-12-16T17:45:39.940Z,88.32
2023-12-16T17:48:06.596Z,88.62
2023-12-16T17:50:33.301Z,90.47
2023-12-16T17:52:59.683Z,88.15
2023-12-16T17:55:26.052Z,88.05
2023-12-16T17:57:52.426Z,86.36
2023-12-16T18:00:19.150Z,87.66
2023-12-16T18:02:45.736Z,88.14
2023-12-16T18:05:12.290Z,89.04
2023-12-16T18:07:39.003Z,88.32
2023-12-16T18:10:05.840Z,89.49
2023-12-16T18:12:32.395Z,90.39
2023-12-16T18:14:58.823Z,89.90
2023-12-16T18:17:26.753Z,90.44
2023-12-16T18:19:53.237Z,89.13
2023-12-16T18:22:21.383Z,89.46
2023-12-16T18:24:47.743Z,90.57
2023-12-16T18:27:14.165Z,90.36
2023-12-16T18:29:40.952Z,89.15
2023-12-16T18:32:08.868Z,90.05
2023-12-16T18:34:35.608Z,91.45
2023-12-16T18:37:02.142Z,89.71
2023-12-16T18:39:29.637Z,87.78
2023-12-16T18:41:56.103Z,90.01
2023-12-16T18:44:23.110Z,90.41
2023-12-16T18:46:49.501Z,88.79
2023-12-16T18:49:16.052Z,90.29
2023-12-16T18:51:42.528Z,91.07
2023-12-16T18:54:11.829Z,89.83
2023-12-16T18:56:38.251Z,89.11
2023-12-16T18:59:05.341Z,91.31
2023-12-16T19:01:32.388Z,90.01
2023-12-16T19:03:58.823Z,90.26
2023-12-16T19:06:25.250Z,89.83
2023-12-16T19:08:51.683Z,90.50
2023-12-16T19:11:18.058Z,89.65
2023-12-16T19:13:44.457Z,90.96
2023-12-16T19:16:10.939Z,90.54
2023-12-16T19:18:37.498Z,91.00
2023-12-16T19:21:04.241Z,90.28
2023-12-16T19:23:32.574Z,91.23
2023-12-16T19:25:59.127Z,92.79
2023-12-16T19:28:26.213Z,91.62
2023-12-16T19:30:52.659Z,91.47
2023-12-16T19:33:19.304Z,91.30
2023-12-16T19:35:45.881Z,91.92
2023-12-16T19:38:12.333Z,91.43
2023-12-16T19:40:38.740Z,90.99
2023-12-16T19:43:05.117Z,90.73
2023-12-16T19:45:31.486Z,91.79
2023-12-16T19:47:58.009Z,91.48
2023-12-16T19:50:24.441Z,91.35
2023-12-16T19:52:51.415Z,90.91
2023-12-16T19:55:17.761Z,91.33
2023-12-16T19:57:44.189Z,91.26
2023-12-16T20:00:11.236Z,89.69
2023-12-16T20:02:37.806Z,89.30
2023-12-16T20:05:04.825Z,88.84
2023-12-16T20:07:31.202Z,90.11
2023-12-16T20:09:57.621Z,90.36
2023-12-16T20:12:24.029Z,90.35
2023-12-16T20:14:50.826Z,89.48
2023-12-16T20:17:17.506Z,90.35
2023-12-16T20:19:44.232Z,88.42
2023-12-16T20:22:10.810Z,89.08
2023-12-16T20:24:37.186Z,89.18
2023-12-16T20:27:03.698Z,89.37
2023-12-16T20:29:30.159Z,87.38
2023-12-16T20:31:56.861Z,86.71
2023-12-16T20:34:23.529Z,88.97
2023-12-16T20:36:53.169Z,88.99
2023-12-16T20:39:38.147Z,89.19
2023-12-16T20:42:05.161Z,89.49
2023-12-16T20:44:31.570Z,89.32
2023-12-16T20:46:58.011Z,89.84
2023-12-16T20:49:24.610Z,91.38
2023-12-16T20:51:56.903Z,90.80
2023-12-16T20:54:23.505Z,91.08
2023-12-16T20:56:49.996Z,90.72
2023-12-16T20:59:16.604Z,91.38
2023-12-16T21:01:42.954Z,91.63
2023-12-16T21:04:10.159Z,91.21
2023-12-16T21:06:36.651Z,91.89
2023-12-16T21:09:05.435Z,89.99
2023-12-16T21:11:32.002Z,88.47
2023-12-16T21:13:58.427Z,90.25
2023-12-16T21:16:24.972Z,88.66
2023-12-16T21:18:51.420Z,89.37
2023-12-16T21:21:17.897Z,89.30
2023-12-16T21:23:44.299Z,89.08
2023-12-16T21:26:11.382Z,88.23
2023-12-16T21:28:38.279Z,88.60
2023-12-16T21:31:06.166Z,87.57
2023-12-16T21:33:32.651Z,87.64
2023-12-16T21:35:59.121Z,86.52
2023-12-16T21:38:25.935Z,86.48
2023-12-16T21:40:52.929Z,88.02
2023-12-16T21:43:19.327Z,88.30
2023-12-16T21:45:45.695Z,85.80
2023-12-16T21:48:13.639Z,85.53
2023-12-16T21:50:41.727Z,87.30
2023-12-16T21:53:08.305Z,86.74
2023-12-16T21:55:34.658Z,86.60
2023-12-16T21:58:01.034Z,86.46
2023-12-16T22:00:27.530Z,84.55
2023-12-16T22:02:54.203Z,86.32
2023-12-16T22:05:22.213Z,86.33
2023-12-16T22:07:48.635Z,86.29
2023-12-16T22:10:15.170Z,87.39
2023-12-16T22:12:41.698Z,87.13
2023-12-16T22:15:10.228Z,86.48
2023-12-16T22:17:36.928Z,84.55
2023-12-16T22:20:03.962Z,85.36
2023-12-16T22:22:30.472Z,86.68
2023-12-16T22:24:56.861Z,86.60
2023-12-16T22:27:23.351Z,87.33
2023-12-16T22:29:49.876Z,87.22
2023-12-16T22:32:16.298Z,86.73
2023-12-16T22:34:42.786Z,86.57
2023-12-16T22:37:09.730Z,86.91
2023-12-16T22:39:37.103Z,86.88
2023-12-16T22:42:04.638Z,86.79
2023-12-16T22:44:31.022Z,85.24
2023-12-16T22:46:57.412Z,85.56
2023-12-16T22:49:24.014Z,86.20
2023-12-16T22:51:50.595Z,84.77
2023-12-16T22:54:17.162Z,85.50
2023-12-16T22:56:43.742Z,86.63
2023-12-16T22:59:10.107Z,84.80
2023-12-16T23:01:36.895Z,84.39
2023-12-16T23:04:03.553Z,83.84
2023-12-16T23:06:30.004Z,85.46
2023-12-16T23:08:56.615Z,85.95
2023-12-16T23:11:22.993Z,86.21
2023-12-16T23:13:49.429Z,87.15
2023-12-16T23:16:15.782Z,86.95
2023-12-16T23:18:42.389Z,87.07
2023-12-16T23:21:08.853Z,87.00
2023-12-16T23:23:35.301Z,86.46
2023-12-16T23:26:03.255Z,87.60
2023-12-16T23:28:29.799Z,88.37
2023-12-16T23:31:03.993Z,87.90
2023-12-16T23:33:38.119Z,87.99
2023-12-16T23:36:06.847Z,87.59
2023-12-16T23:38:36.507Z,87.15
2023-12-16T23:41:03.143Z,87.75
2023-12-16T23:43:29.492Z,88.61
2023-12-16T23:45:55.929Z,88.42
2023-12-16T23:48:22.457Z,88.21
2023-12-16T23:50:49.395Z,87.97
2023-12-16T23:53:15.778Z,88.35
2023-12-16T23:55:42.195Z,88.89
2023-12-16T23:58:08.619Z,88.66
